sensor_id;sensor_type;location;lat;lon;timestamp;temperature;humidity
28336;DHT22;15592;53.656;7.276;2022-09-17T00:00:22;13.00;99.90
28336;DHT22;15592;53.656;7.276;2022-09-17T00:02:51;13.00;99.90
28336;DHT22;15592;53.656;7.276;2022-09-17T00:05:21;13.10;99.90
28336;DHT22;15592;53.656;7.276;2022-09-17T00:07:48;13.20;99.90
28336;DHT22;15592;53.656;7.276;2022-09-17T00:10:13;13.20;99.90
28336;DHT22;15592;53.656;7.276;2022-09-17T00:12:39;13.20;99.90
28336;DHT22;15592;53.656;7.276;2022-09-17T00:15:06;13.20;99.90
28336;DHT22;15592;53.656;7.276;2022-09-17T00:17:31;13.20;99.90
28336;DHT22;15592;53.656;7.276;2022-09-17T00:19:57;13.20;99.90
28336;DHT22;15592;53.656;7.276;2022-09-17T00:22:23;13.10;99.90
28336;DHT22;15592;53.656;7.276;2022-09-17T00:24:48;13.10;99.90
28336;DHT22;15592;53.656;7.276;2022-09-17T00:27:14;13.20;99.90
28336;DHT22;15592;53.656;7.276;2022-09-17T00:29:39;13.20;99.90
28336;DHT22;15592;53.656;7.276;2022-09-17T00:32:05;13.30;99.90
28336;DHT22;15592;53.656;7.276;2022-09-17T00:34:31;13.30;99.90
28336;DHT22;15592;53.656;7.276;2022-09-17T00:36:56;13.30;99.90
28336;DHT22;15592;53.656;7.276;2022-09-17T00:39:22;13.30;99.90
28336;DHT22;15592;53.656;7.276;2022-09-17T00:41:47;13.20;99.90
28336;DHT22;15592;53.656;7.276;2022-09-17T00:44:46;13.20;99.90
28336;DHT22;15592;53.656;7.276;2022-09-17T00:47:18;13.30;99.90
28336;DHT22;15592;53.656;7.276;2022-09-17T00:49:45;13.30;99.90
28336;DHT22;15592;53.656;7.276;2022-09-17T00:52:15;13.40;99.90
28336;DHT22;15592;53.656;7.276;2022-09-17T00:54:45;13.30;99.90
28336;DHT22;15592;53.656;7.276;2022-09-17T00:57:14;13.30;99.90
28336;DHT22;15592;53.656;7.276;2022-09-17T00:59:40;13.30;99.90
28336;DHT22;15592;53.656;7.276;2022-09-17T01:02:06;13.30;99.90
28336;DHT22;15592;53.656;7.276;2022-09-17T01:04:32;13.30;99.90
28336;DHT22;15592;53.656;7.276;2022-09-17T01:10:10;13.30;99.90
28336;DHT22;15592;53.656;7.276;2022-09-17T01:12:42;13.40;99.90
28336;DHT22;15592;53.656;7.276;2022-09-17T01:32:51;13.30;99.90
28336;DHT22;15592;53.656;7.276;2022-09-17T01:35:06;13.30;99.90
28336;DHT22;15592;53.656;7.276;2022-09-17T01:40:28;13.30;99.90
28336;DHT22;15592;53.656;7.276;2022-09-17T01:43:08;13.30;99.90
28336;DHT22;15592;53.656;7.276;2022-09-17T01:45:50;13.30;99.90
28336;DHT22;15592;53.656;7.276;2022-09-17T01:48:18;13.30;99.90
28336;DHT22;15592;53.656;7.276;2022-09-17T01:50:55;13.30;99.90
28336;DHT22;15592;53.656;7.276;2022-09-17T01:53:25;13.20;99.90
28336;DHT22;15592;53.656;7.276;2022-09-17T01:55:54;13.10;99.90
28336;DHT22;15592;53.656;7.276;2022-09-17T01:58:23;13.00;99.90
28336;DHT22;15592;53.656;7.276;2022-09-17T02:00:56;13.10;99.90
28336;DHT22;15592;53.656;7.276;2022-09-17T02:03:29;13.00;99.90
28336;DHT22;15592;53.656;7.276;2022-09-17T02:06:12;13.00;99.90
28336;DHT22;15592;53.656;7.276;2022-09-17T02:11:10;12.90;99.90
28336;DHT22;15592;53.656;7.276;2022-09-17T02:16:29;12.80;99.90
28336;DHT22;15592;53.656;7.276;2022-09-17T02:19:06;12.80;99.90
28336;DHT22;15592;53.656;7.276;2022-09-17T02:21:44;12.80;99.90
28336;DHT22;15592;53.656;7.276;2022-09-17T02:24:24;12.80;99.90
28336;DHT22;15592;53.656;7.276;2022-09-17T02:26:57;12.70;99.90
28336;DHT22;15592;53.656;7.276;2022-09-17T02:29:40;12.70;99.90
28336;DHT22;15592;53.656;7.276;2022-09-17T02:32:06;12.70;99.90
28336;DHT22;15592;53.656;7.276;2022-09-17T02:34:32;12.70;99.90
28336;DHT22;15592;53.656;7.276;2022-09-17T02:36:59;12.70;99.90
28336;DHT22;15592;53.656;7.276;2022-09-17T02:39:25;12.70;99.90
28336;DHT22;15592;53.656;7.276;2022-09-17T02:58:55;12.90;99.90
28336;DHT22;15592;53.656;7.276;2022-09-17T03:01:37;13.00;99.90
28336;DHT22;15592;53.656;7.276;2022-09-17T03:04:07;13.00;99.90
28336;DHT22;15592;53.656;7.276;2022-09-17T03:06:34;13.00;99.90
28336;DHT22;15592;53.656;7.276;2022-09-17T03:09:00;13.00;99.90
28336;DHT22;15592;53.656;7.276;2022-09-17T03:11:26;13.00;99.90
28336;DHT22;15592;53.656;7.276;2022-09-17T03:13:51;13.00;99.90
28336;DHT22;15592;53.656;7.276;2022-09-17T03:16:17;13.00;99.90
28336;DHT22;15592;53.656;7.276;2022-09-17T03:18:43;12.90;99.90
28336;DHT22;15592;53.656;7.276;2022-09-17T03:21:08;13.00;99.90
28336;DHT22;15592;53.656;7.276;2022-09-17T03:23:34;12.90;99.90
28336;DHT22;15592;53.656;7.276;2022-09-17T03:26:00;12.90;99.90
28336;DHT22;15592;53.656;7.276;2022-09-17T03:28:26;12.90;99.90
28336;DHT22;15592;53.656;7.276;2022-09-17T03:30:52;12.90;99.90
28336;DHT22;15592;53.656;7.276;2022-09-17T03:33:18;12.90;99.90
28336;DHT22;15592;53.656;7.276;2022-09-17T03:35:44;12.80;99.90
28336;DHT22;15592;53.656;7.276;2022-09-17T03:38:11;12.80;99.90
28336;DHT22;15592;53.656;7.276;2022-09-17T03:40:37;12.80;99.90
28336;DHT22;15592;53.656;7.276;2022-09-17T03:43:02;12.80;99.90
28336;DHT22;15592;53.656;7.276;2022-09-17T03:45:29;12.70;99.90
28336;DHT22;15592;53.656;7.276;2022-09-17T03:47:54;12.70;99.90
28336;DHT22;15592;53.656;7.276;2022-09-17T03:50:21;12.70;99.90
28336;DHT22;15592;53.656;7.276;2022-09-17T03:52:46;12.70;99.90
28336;DHT22;15592;53.656;7.276;2022-09-17T03:55:12;12.70;99.90
28336;DHT22;15592;53.656;7.276;2022-09-17T03:57:38;12.80;99.90
28336;DHT22;15592;53.656;7.276;2022-09-17T04:00:04;12.80;99.90
28336;DHT22;15592;53.656;7.276;2022-09-17T04:02:30;12.80;99.90
28336;DHT22;15592;53.656;7.276;2022-09-17T04:04:56;12.80;99.90
28336;DHT22;15592;53.656;7.276;2022-09-17T04:07:21;12.80;99.90
28336;DHT22;15592;53.656;7.276;2022-09-17T04:09:47;12.80;99.90
28336;DHT22;15592;53.656;7.276;2022-09-17T04:12:12;12.70;99.90
28336;DHT22;15592;53.656;7.276;2022-09-17T04:14:38;12.70;99.90
28336;DHT22;15592;53.656;7.276;2022-09-17T04:17:03;12.70;99.90
28336;DHT22;15592;53.656;7.276;2022-09-17T04:19:29;12.70;99.90
28336;DHT22;15592;53.656;7.276;2022-09-17T04:21:54;12.60;99.90
28336;DHT22;15592;53.656;7.276;2022-09-17T04:24:20;12.60;99.90
28336;DHT22;15592;53.656;7.276;2022-09-17T04:26:46;12.60;99.90
28336;DHT22;15592;53.656;7.276;2022-09-17T04:29:11;12.60;99.90
28336;DHT22;15592;53.656;7.276;2022-09-17T04:31:37;12.70;99.90
28336;DHT22;15592;53.656;7.276;2022-09-17T04:34:03;12.70;99.90
28336;DHT22;15592;53.656;7.276;2022-09-17T04:36:28;12.60;99.90
28336;DHT22;15592;53.656;7.276;2022-09-17T04:38:54;12.60;99.90
28336;DHT22;15592;53.656;7.276;2022-09-17T04:41:19;12.60;99.90
28336;DHT22;15592;53.656;7.276;2022-09-17T04:43:45;12.60;99.90
28336;DHT22;15592;53.656;7.276;2022-09-17T04:46:11;12.50;99.90
28336;DHT22;15592;53.656;7.276;2022-09-17T04:48:38;12.50;99.90
28336;DHT22;15592;53.656;7.276;2022-09-17T04:51:04;12.50;99.90
28336;DHT22;15592;53.656;7.276;2022-09-17T04:53:29;12.50;99.90
28336;DHT22;15592;53.656;7.276;2022-09-17T04:55:55;12.60;99.90
28336;DHT22;15592;53.656;7.276;2022-09-17T04:58:21;12.70;99.90
28336;DHT22;15592;53.656;7.276;2022-09-17T05:00:47;12.70;99.90
28336;DHT22;15592;53.656;7.276;2022-09-17T05:03:12;12.70;99.90
28336;DHT22;15592;53.656;7.276;2022-09-17T05:05:38;12.70;99.90
28336;DHT22;15592;53.656;7.276;2022-09-17T05:08:03;12.70;99.90
28336;DHT22;15592;53.656;7.276;2022-09-17T05:10:29;12.70;99.90
28336;DHT22;15592;53.656;7.276;2022-09-17T05:12:55;12.60;99.90
28336;DHT22;15592;53.656;7.276;2022-09-17T05:15:22;12.70;99.90
28336;DHT22;15592;53.656;7.276;2022-09-17T05:17:49;12.70;99.90
28336;DHT22;15592;53.656;7.276;2022-09-17T05:20:15;12.70;99.90
28336;DHT22;15592;53.656;7.276;2022-09-17T05:22:46;12.70;99.90
28336;DHT22;15592;53.656;7.276;2022-09-17T05:25:13;12.80;99.90
28336;DHT22;15592;53.656;7.276;2022-09-17T05:27:39;12.70;99.90
28336;DHT22;15592;53.656;7.276;2022-09-17T05:30:06;12.70;99.90
28336;DHT22;15592;53.656;7.276;2022-09-17T05:32:32;12.70;99.90
28336;DHT22;15592;53.656;7.276;2022-09-17T05:34:58;12.70;99.90
28336;DHT22;15592;53.656;7.276;2022-09-17T05:37:24;12.70;99.90
28336;DHT22;15592;53.656;7.276;2022-09-17T05:39:49;12.80;99.90
28336;DHT22;15592;53.656;7.276;2022-09-17T05:42:15;12.80;99.90
28336;DHT22;15592;53.656;7.276;2022-09-17T05:44:40;12.70;99.90
28336;DHT22;15592;53.656;7.276;2022-09-17T05:47:06;12.70;99.90
28336;DHT22;15592;53.656;7.276;2022-09-17T05:49:32;12.70;99.90
28336;DHT22;15592;53.656;7.276;2022-09-17T05:51:57;12.60;99.90
28336;DHT22;15592;53.656;7.276;2022-09-17T05:54:23;12.60;99.90
28336;DHT22;15592;53.656;7.276;2022-09-17T05:56:52;12.60;99.90
28336;DHT22;15592;53.656;7.276;2022-09-17T05:59:18;12.70;99.90
28336;DHT22;15592;53.656;7.276;2022-09-17T06:01:44;12.70;99.90
28336;DHT22;15592;53.656;7.276;2022-09-17T06:04:09;12.60;99.90
28336;DHT22;15592;53.656;7.276;2022-09-17T06:06:35;12.60;99.90
28336;DHT22;15592;53.656;7.276;2022-09-17T06:09:02;12.60;99.90
28336;DHT22;15592;53.656;7.276;2022-09-17T06:11:28;12.60;99.90
28336;DHT22;15592;53.656;7.276;2022-09-17T06:13:55;12.60;99.90
28336;DHT22;15592;53.656;7.276;2022-09-17T06:16:22;12.50;99.90
28336;DHT22;15592;53.656;7.276;2022-09-17T06:18:47;12.50;99.90
28336;DHT22;15592;53.656;7.276;2022-09-17T06:21:14;12.60;99.90
28336;DHT22;15592;53.656;7.276;2022-09-17T06:23:41;12.70;99.90
28336;DHT22;15592;53.656;7.276;2022-09-17T06:26:08;12.70;99.90
28336;DHT22;15592;53.656;7.276;2022-09-17T06:28:34;12.60;99.90
28336;DHT22;15592;53.656;7.276;2022-09-17T06:31:02;12.60;99.90
28336;DHT22;15592;53.656;7.276;2022-09-17T06:33:29;12.50;99.90
28336;DHT22;15592;53.656;7.276;2022-09-17T06:35:59;12.60;99.90
28336;DHT22;15592;53.656;7.276;2022-09-17T06:38:28;12.70;99.90
28336;DHT22;15592;53.656;7.276;2022-09-17T06:40:55;12.70;99.90
28336;DHT22;15592;53.656;7.276;2022-09-17T06:43:21;12.60;99.90
28336;DHT22;15592;53.656;7.276;2022-09-17T06:45:54;12.60;99.90
28336;DHT22;15592;53.656;7.276;2022-09-17T06:48:21;12.60;99.90
28336;DHT22;15592;53.656;7.276;2022-09-17T06:50:48;12.60;99.90
28336;DHT22;15592;53.656;7.276;2022-09-17T06:53:14;12.70;99.90
28336;DHT22;15592;53.656;7.276;2022-09-17T06:55:40;12.70;99.90
28336;DHT22;15592;53.656;7.276;2022-09-17T06:58:06;12.80;99.90
28336;DHT22;15592;53.656;7.276;2022-09-17T07:00:32;12.90;99.90
28336;DHT22;15592;53.656;7.276;2022-09-17T07:02:58;13.00;99.90
28336;DHT22;15592;53.656;7.276;2022-09-17T07:05:24;12.90;99.90
28336;DHT22;15592;53.656;7.276;2022-09-17T07:07:51;12.90;99.90
28336;DHT22;15592;53.656;7.276;2022-09-17T07:10:17;13.00;99.90
28336;DHT22;15592;53.656;7.276;2022-09-17T07:12:42;13.00;99.90
28336;DHT22;15592;53.656;7.276;2022-09-17T07:15:09;13.00;99.90
28336;DHT22;15592;53.656;7.276;2022-09-17T07:17:38;13.00;99.90
28336;DHT22;15592;53.656;7.276;2022-09-17T07:20:06;13.00;99.90
28336;DHT22;15592;53.656;7.276;2022-09-17T07:22:32;13.00;99.90
28336;DHT22;15592;53.656;7.276;2022-09-17T07:24:58;13.00;99.90
28336;DHT22;15592;53.656;7.276;2022-09-17T07:27:26;13.00;99.90
28336;DHT22;15592;53.656;7.276;2022-09-17T07:29:53;13.00;99.90
28336;DHT22;15592;53.656;7.276;2022-09-17T07:32:18;13.00;99.90
28336;DHT22;15592;53.656;7.276;2022-09-17T07:34:44;12.90;99.90
28336;DHT22;15592;53.656;7.276;2022-09-17T07:37:09;12.90;99.90
28336;DHT22;15592;53.656;7.276;2022-09-17T07:39:35;12.90;99.90
28336;DHT22;15592;53.656;7.276;2022-09-17T07:42:01;12.90;99.90
28336;DHT22;15592;53.656;7.276;2022-09-17T07:44:29;12.90;99.90
28336;DHT22;15592;53.656;7.276;2022-09-17T07:46:54;13.00;99.90
28336;DHT22;15592;53.656;7.276;2022-09-17T07:49:20;13.10;99.90
28336;DHT22;15592;53.656;7.276;2022-09-17T07:51:45;13.20;99.90
28336;DHT22;15592;53.656;7.276;2022-09-17T07:54:11;13.20;99.90
28336;DHT22;15592;53.656;7.276;2022-09-17T07:56:37;13.30;99.90
28336;DHT22;15592;53.656;7.276;2022-09-17T07:59:02;13.50;99.90
28336;DHT22;15592;53.656;7.276;2022-09-17T08:01:31;13.40;99.90
28336;DHT22;15592;53.656;7.276;2022-09-17T08:03:58;13.40;99.90
28336;DHT22;15592;53.656;7.276;2022-09-17T08:06:25;13.30;99.90
28336;DHT22;15592;53.656;7.276;2022-09-17T08:08:53;13.30;99.90
28336;DHT22;15592;53.656;7.276;2022-09-17T08:11:24;13.30;99.90
28336;DHT22;15592;53.656;7.276;2022-09-17T08:13:51;13.30;99.90
28336;DHT22;15592;53.656;7.276;2022-09-17T08:16:17;13.20;99.90
28336;DHT22;15592;53.656;7.276;2022-09-17T08:18:44;13.20;99.90
28336;DHT22;15592;53.656;7.276;2022-09-17T08:21:13;13.20;99.90
28336;DHT22;15592;53.656;7.276;2022-09-17T08:23:40;13.20;99.90
28336;DHT22;15592;53.656;7.276;2022-09-17T08:26:10;13.20;99.90
28336;DHT22;15592;53.656;7.276;2022-09-17T08:28:36;13.20;99.90
28336;DHT22;15592;53.656;7.276;2022-09-17T08:31:05;13.20;99.90
28336;DHT22;15592;53.656;7.276;2022-09-17T08:33:31;13.30;99.90
28336;DHT22;15592;53.656;7.276;2022-09-17T08:35:57;13.30;99.90
28336;DHT22;15592;53.656;7.276;2022-09-17T08:38:25;13.40;99.90
28336;DHT22;15592;53.656;7.276;2022-09-17T08:46:15;13.50;99.90
28336;DHT22;15592;53.656;7.276;2022-09-17T08:48:46;13.40;99.90
28336;DHT22;15592;53.656;7.276;2022-09-17T08:51:41;13.30;99.90
28336;DHT22;15592;53.656;7.276;2022-09-17T09:00:13;13.60;99.90
28336;DHT22;15592;53.656;7.276;2022-09-17T09:05:36;13.90;99.90
28336;DHT22;15592;53.656;7.276;2022-09-17T09:10:50;14.00;99.90
28336;DHT22;15592;53.656;7.276;2022-09-17T09:13:21;13.90;99.90
28336;DHT22;15592;53.656;7.276;2022-09-17T09:15:58;13.90;99.90
28336;DHT22;15592;53.656;7.276;2022-09-17T09:18:28;13.90;99.90
28336;DHT22;15592;53.656;7.276;2022-09-17T09:21:27;14.00;99.90
28336;DHT22;15592;53.656;7.276;2022-09-17T09:24:09;13.90;99.90
28336;DHT22;15592;53.656;7.276;2022-09-17T09:26:55;14.00;99.90
28336;DHT22;15592;53.656;7.276;2022-09-17T09:29:47;14.10;99.90
28336;DHT22;15592;53.656;7.276;2022-09-17T09:32:27;14.20;99.90
28336;DHT22;15592;53.656;7.276;2022-09-17T09:34:57;14.30;99.90
28336;DHT22;15592;53.656;7.276;2022-09-17T09:37:31;14.40;99.90
28336;DHT22;15592;53.656;7.276;2022-09-17T09:40:27;14.50;99.90
28336;DHT22;15592;53.656;7.276;2022-09-17T09:42:56;14.60;99.90
28336;DHT22;15592;53.656;7.276;2022-09-17T09:45:48;14.50;99.90
28336;DHT22;15592;53.656;7.276;2022-09-17T09:53:45;14.40;99.90
28336;DHT22;15592;53.656;7.276;2022-09-17T09:58:58;14.30;99.90
28336;DHT22;15592;53.656;7.276;2022-09-17T10:01:27;14.40;99.90
28336;DHT22;15592;53.656;7.276;2022-09-17T10:03:54;14.50;99.90
28336;DHT22;15592;53.656;7.276;2022-09-17T10:06:23;14.60;99.90
28336;DHT22;15592;53.656;7.276;2022-09-17T10:11:24;14.80;99.90
28336;DHT22;15592;53.656;7.276;2022-09-17T10:13:50;14.80;99.90
28336;DHT22;15592;53.656;7.276;2022-09-17T10:16:23;14.80;99.90
28336;DHT22;15592;53.656;7.276;2022-09-17T10:19:11;14.70;99.90
28336;DHT22;15592;53.656;7.276;2022-09-17T10:21:39;14.60;99.90
28336;DHT22;15592;53.656;7.276;2022-09-17T10:24:24;14.60;99.90
28336;DHT22;15592;53.656;7.276;2022-09-17T10:26:50;14.60;99.90
28336;DHT22;15592;53.656;7.276;2022-09-17T10:29:18;14.30;99.90
28336;DHT22;15592;53.656;7.276;2022-09-17T10:31:53;14.00;99.90
28336;DHT22;15592;53.656;7.276;2022-09-17T10:36:49;13.40;99.90
28336;DHT22;15592;53.656;7.276;2022-09-17T10:41:54;13.20;99.90
28336;DHT22;15592;53.656;7.276;2022-09-17T10:44:22;13.10;99.90
28336;DHT22;15592;53.656;7.276;2022-09-17T10:46:49;13.20;99.90
28336;DHT22;15592;53.656;7.276;2022-09-17T10:49:35;13.20;99.90
28336;DHT22;15592;53.656;7.276;2022-09-17T10:54:43;13.30;99.90
28336;DHT22;15592;53.656;7.276;2022-09-17T10:57:23;13.40;99.90
28336;DHT22;15592;53.656;7.276;2022-09-17T11:00:01;13.50;99.90
28336;DHT22;15592;53.656;7.276;2022-09-17T11:07:45;13.60;99.90
28336;DHT22;15592;53.656;7.276;2022-09-17T11:10:36;13.60;99.90
28336;DHT22;15592;53.656;7.276;2022-09-17T11:18:53;13.90;99.90
28336;DHT22;15592;53.656;7.276;2022-09-17T11:21:30;13.90;99.90
28336;DHT22;15592;53.656;7.276;2022-09-17T11:26:53;14.10;99.90
28336;DHT22;15592;53.656;7.276;2022-09-17T11:29:39;14.30;99.90
28336;DHT22;15592;53.656;7.276;2022-09-17T11:37:49;14.60;99.90
28336;DHT22;15592;53.656;7.276;2022-09-17T11:40:59;14.60;99.90
28336;DHT22;15592;53.656;7.276;2022-09-17T11:43:29;14.60;99.90
28336;DHT22;15592;53.656;7.276;2022-09-17T11:46:06;14.50;99.90
28336;DHT22;15592;53.656;7.276;2022-09-17T11:48:56;14.40;99.90
28336;DHT22;15592;53.656;7.276;2022-09-17T11:51:33;14.30;99.90
28336;DHT22;15592;53.656;7.276;2022-09-17T11:54:21;14.30;99.90
28336;DHT22;15592;53.656;7.276;2022-09-17T11:56:51;14.40;99.90
28336;DHT22;15592;53.656;7.276;2022-09-17T11:59:29;14.40;99.90
28336;DHT22;15592;53.656;7.276;2022-09-17T12:02:03;14.50;99.90
28336;DHT22;15592;53.656;7.276;2022-09-17T12:07:32;14.40;99.90
28336;DHT22;15592;53.656;7.276;2022-09-17T12:12:31;14.40;99.90
28336;DHT22;15592;53.656;7.276;2022-09-17T12:15:04;14.50;99.90
28336;DHT22;15592;53.656;7.276;2022-09-17T12:17:55;14.50;99.90
28336;DHT22;15592;53.656;7.276;2022-09-17T12:20:35;14.50;99.90
28336;DHT22;15592;53.656;7.276;2022-09-17T12:23:05;14.60;99.90
28336;DHT22;15592;53.656;7.276;2022-09-17T12:31:43;14.80;99.90
28336;DHT22;15592;53.656;7.276;2022-09-17T12:37:05;14.30;99.90
28336;DHT22;15592;53.656;7.276;2022-09-17T12:42:22;14.10;99.90
28336;DHT22;15592;53.656;7.276;2022-09-17T12:45:02;14.10;99.90
28336;DHT22;15592;53.656;7.276;2022-09-17T13:00:45;14.90;99.90
28336;DHT22;15592;53.656;7.276;2022-09-17T13:14:14;14.90;99.90
28336;DHT22;15592;53.656;7.276;2022-09-17T13:19:49;14.90;99.90
28336;DHT22;15592;53.656;7.276;2022-09-17T13:22:20;14.90;99.90
28336;DHT22;15592;53.656;7.276;2022-09-17T13:25:04;14.90;99.90
28336;DHT22;15592;53.656;7.276;2022-09-17T13:27:31;14.90;99.90
28336;DHT22;15592;53.656;7.276;2022-09-17T13:29:57;14.80;99.90
28336;DHT22;15592;53.656;7.276;2022-09-17T13:40:29;14.80;99.90
28336;DHT22;15592;53.656;7.276;2022-09-17T13:43:07;14.90;99.90
28336;DHT22;15592;53.656;7.276;2022-09-17T13:48:25;14.90;99.90
28336;DHT22;15592;53.656;7.276;2022-09-17T13:50:52;14.90;99.90
28336;DHT22;15592;53.656;7.276;2022-09-17T13:53:19;14.90;99.90
28336;DHT22;15592;53.656;7.276;2022-09-17T13:55:55;14.90;99.90
28336;DHT22;15592;53.656;7.276;2022-09-17T13:58:33;15.00;99.90
28336;DHT22;15592;53.656;7.276;2022-09-17T14:01:10;15.00;99.90
28336;DHT22;15592;53.656;7.276;2022-09-17T14:22:12;14.60;99.90
28336;DHT22;15592;53.656;7.276;2022-09-17T14:28:02;14.50;99.90
28336;DHT22;15592;53.656;7.276;2022-09-17T14:30:34;14.40;99.90
28336;DHT22;15592;53.656;7.276;2022-09-17T14:35:43;14.40;99.90
28336;DHT22;15592;53.656;7.276;2022-09-17T14:38:45;14.40;99.90
28336;DHT22;15592;53.656;7.276;2022-09-17T14:46:32;14.50;99.90
28336;DHT22;15592;53.656;7.276;2022-09-17T14:49:32;14.60;99.90
28336;DHT22;15592;53.656;7.276;2022-09-17T14:51:59;14.60;99.90
28336;DHT22;15592;53.656;7.276;2022-09-17T14:54:27;14.70;99.90
28336;DHT22;15592;53.656;7.276;2022-09-17T14:57:01;14.70;99.90
28336;DHT22;15592;53.656;7.276;2022-09-17T15:02:17;14.70;99.90
28336;DHT22;15592;53.656;7.276;2022-09-17T15:04:43;14.70;99.90
28336;DHT22;15592;53.656;7.276;2022-09-17T15:07:11;14.60;99.90
28336;DHT22;15592;53.656;7.276;2022-09-17T15:09:37;14.60;99.90
28336;DHT22;15592;53.656;7.276;2022-09-17T15:12:04;14.60;99.90
28336;DHT22;15592;53.656;7.276;2022-09-17T15:14:32;14.50;99.90
28336;DHT22;15592;53.656;7.276;2022-09-17T15:17:00;14.50;99.90
28336;DHT22;15592;53.656;7.276;2022-09-17T15:19:30;14.50;99.90
28336;DHT22;15592;53.656;7.276;2022-09-17T15:22:00;14.40;99.90
28336;DHT22;15592;53.656;7.276;2022-09-17T15:26:57;14.40;99.90
28336;DHT22;15592;53.656;7.276;2022-09-17T15:29:27;14.60;99.90
28336;DHT22;15592;53.656;7.276;2022-09-17T15:31:55;14.60;99.90
28336;DHT22;15592;53.656;7.276;2022-09-17T15:34:21;14.60;99.90
28336;DHT22;15592;53.656;7.276;2022-09-17T15:37:20;14.60;99.90
28336;DHT22;15592;53.656;7.276;2022-09-17T15:39:48;14.50;99.90
28336;DHT22;15592;53.656;7.276;2022-09-17T15:42:29;14.40;99.90
28336;DHT22;15592;53.656;7.276;2022-09-17T15:45:21;14.30;99.90
28336;DHT22;15592;53.656;7.276;2022-09-17T15:50:20;14.20;99.90
28336;DHT22;15592;53.656;7.276;2022-09-17T15:52:47;14.10;99.90
28336;DHT22;15592;53.656;7.276;2022-09-17T15:55:30;14.10;99.90
28336;DHT22;15592;53.656;7.276;2022-09-17T15:57:57;14.10;99.90
28336;DHT22;15592;53.656;7.276;2022-09-17T16:00:24;14.20;99.90
28336;DHT22;15592;53.656;7.276;2022-09-17T16:02:50;14.20;99.90
28336;DHT22;15592;53.656;7.276;2022-09-17T16:07:46;14.20;99.90
28336;DHT22;15592;53.656;7.276;2022-09-17T16:10:13;14.10;99.90
28336;DHT22;15592;53.656;7.276;2022-09-17T16:12:39;14.10;99.90
28336;DHT22;15592;53.656;7.276;2022-09-17T16:15:06;14.10;99.90
28336;DHT22;15592;53.656;7.276;2022-09-17T16:20:41;14.00;99.90
28336;DHT22;15592;53.656;7.276;2022-09-17T16:23:00;14.00;99.90
28336;DHT22;15592;53.656;7.276;2022-09-17T16:25:26;14.00;99.90
28336;DHT22;15592;53.656;7.276;2022-09-17T16:27:59;14.00;99.90
28336;DHT22;15592;53.656;7.276;2022-09-17T16:30:26;14.00;99.90
28336;DHT22;15592;53.656;7.276;2022-09-17T16:32:52;13.90;99.90
28336;DHT22;15592;53.656;7.276;2022-09-17T16:35:21;13.90;99.90
28336;DHT22;15592;53.656;7.276;2022-09-17T16:37:48;13.90;99.90
28336;DHT22;15592;53.656;7.276;2022-09-17T16:40:15;13.90;99.90
28336;DHT22;15592;53.656;7.276;2022-09-17T16:42:41;13.80;99.90
28336;DHT22;15592;53.656;7.276;2022-09-17T16:45:07;13.80;99.90
28336;DHT22;15592;53.656;7.276;2022-09-17T16:47:37;13.80;99.90
28336;DHT22;15592;53.656;7.276;2022-09-17T16:50:09;13.80;99.90
28336;DHT22;15592;53.656;7.276;2022-09-17T16:52:36;13.80;99.90
28336;DHT22;15592;53.656;7.276;2022-09-17T16:55:03;13.80;99.90
28336;DHT22;15592;53.656;7.276;2022-09-17T16:57:30;13.80;99.90
28336;DHT22;15592;53.656;7.276;2022-09-17T16:59:56;13.70;99.90
28336;DHT22;15592;53.656;7.276;2022-09-17T17:02:22;13.60;99.90
28336;DHT22;15592;53.656;7.276;2022-09-17T17:04:47;13.50;99.90
28336;DHT22;15592;53.656;7.276;2022-09-17T17:07:13;13.50;99.90
28336;DHT22;15592;53.656;7.276;2022-09-17T17:09:39;13.40;99.90
28336;DHT22;15592;53.656;7.276;2022-09-17T17:12:04;13.40;99.90
28336;DHT22;15592;53.656;7.276;2022-09-17T17:14:30;13.40;99.90
28336;DHT22;15592;53.656;7.276;2022-09-17T17:16:56;13.40;99.90
28336;DHT22;15592;53.656;7.276;2022-09-17T17:19:21;13.40;99.90
28336;DHT22;15592;53.656;7.276;2022-09-17T17:21:49;13.40;99.90
28336;DHT22;15592;53.656;7.276;2022-09-17T17:24:15;13.40;99.90
28336;DHT22;15592;53.656;7.276;2022-09-17T17:26:41;13.40;99.90
28336;DHT22;15592;53.656;7.276;2022-09-17T17:29:07;13.30;99.90
28336;DHT22;15592;53.656;7.276;2022-09-17T17:31:33;13.30;99.90
28336;DHT22;15592;53.656;7.276;2022-09-17T17:33:59;13.30;99.90
28336;DHT22;15592;53.656;7.276;2022-09-17T17:36:25;13.40;99.90
28336;DHT22;15592;53.656;7.276;2022-09-17T17:38:55;13.30;99.90
28336;DHT22;15592;53.656;7.276;2022-09-17T17:41:21;13.40;99.90
28336;DHT22;15592;53.656;7.276;2022-09-17T17:43:51;13.30;99.90
28336;DHT22;15592;53.656;7.276;2022-09-17T17:46:17;13.30;99.90
28336;DHT22;15592;53.656;7.276;2022-09-17T17:48:43;13.20;99.90
28336;DHT22;15592;53.656;7.276;2022-09-17T17:51:09;13.30;99.90
28336;DHT22;15592;53.656;7.276;2022-09-17T17:53:35;13.30;99.90
28336;DHT22;15592;53.656;7.276;2022-09-17T17:56:04;13.30;99.90
28336;DHT22;15592;53.656;7.276;2022-09-17T17:58:31;13.30;99.90
28336;DHT22;15592;53.656;7.276;2022-09-17T18:00:57;13.20;99.90
28336;DHT22;15592;53.656;7.276;2022-09-17T18:03:23;13.20;99.90
28336;DHT22;15592;53.656;7.276;2022-09-17T18:05:55;13.20;99.90
28336;DHT22;15592;53.656;7.276;2022-09-17T18:08:24;13.10;99.90
28336;DHT22;15592;53.656;7.276;2022-09-17T18:10:52;13.10;99.90
28336;DHT22;15592;53.656;7.276;2022-09-17T18:13:19;13.10;99.90
28336;DHT22;15592;53.656;7.276;2022-09-17T18:15:56;13.00;99.90
28336;DHT22;15592;53.656;7.276;2022-09-17T18:18:23;13.10;99.90
28336;DHT22;15592;53.656;7.276;2022-09-17T18:20:49;13.00;99.90
28336;DHT22;15592;53.656;7.276;2022-09-17T18:23:19;13.00;99.90
28336;DHT22;15592;53.656;7.276;2022-09-17T18:25:56;13.10;99.90
28336;DHT22;15592;53.656;7.276;2022-09-17T18:28:22;13.00;99.90
28336;DHT22;15592;53.656;7.276;2022-09-17T18:30:48;13.10;99.90
28336;DHT22;15592;53.656;7.276;2022-09-17T18:33:23;13.00;99.90
28336;DHT22;15592;53.656;7.276;2022-09-17T18:35:50;13.00;99.90
28336;DHT22;15592;53.656;7.276;2022-09-17T18:38:17;12.90;99.90
28336;DHT22;15592;53.656;7.276;2022-09-17T18:40:43;12.90;99.90
28336;DHT22;15592;53.656;7.276;2022-09-17T18:43:09;12.90;99.90
28336;DHT22;15592;53.656;7.276;2022-09-17T18:45:35;13.00;99.90
28336;DHT22;15592;53.656;7.276;2022-09-17T18:48:03;13.10;99.90
28336;DHT22;15592;53.656;7.276;2022-09-17T18:50:29;13.10;99.90
28336;DHT22;15592;53.656;7.276;2022-09-17T18:52:54;13.10;99.90
28336;DHT22;15592;53.656;7.276;2022-09-17T18:55:20;13.20;99.90
28336;DHT22;15592;53.656;7.276;2022-09-17T18:57:51;13.20;99.90
28336;DHT22;15592;53.656;7.276;2022-09-17T19:00:20;13.20;99.90
28336;DHT22;15592;53.656;7.276;2022-09-17T19:02:47;13.20;99.90